createdAt,value
2022-09-21T00:00:05.782Z,9.03
2022-09-21T00:03:07.499Z,9.04
2022-09-21T00:06:12.633Z,8.91
2022-09-21T00:09:14.343Z,8.80
2022-09-21T00:12:17.078Z,8.91
2022-09-21T00:15:19.217Z,8.82
2022-09-21T00:18:20.945Z,8.65
2022-09-21T00:21:24.387Z,8.71
2022-09-21T00:24:26.058Z,8.66
2022-09-21T00:27:30.027Z,8.72
2022-09-21T00:30:31.758Z,8.69
2022-09-21T00:33:33.988Z,8.54
2022-09-21T00:36:36.973Z,8.60
2022-09-21T00:39:38.714Z,8.35
2022-09-21T00:42:40.425Z,8.43
2022-09-21T00:45:42.984Z,8.43
2022-09-21T00:48:45.981Z,8.38
2022-09-21T00:51:50.032Z,8.24
2022-09-21T00:54:54.826Z,8.26
2022-09-21T00:58:00.346Z,8.41
2022-09-21T01:01:01.976Z,8.23
2022-09-21T01:04:03.852Z,8.27
2022-09-21T01:07:12.246Z,8.12
2022-09-21T01:10:17.522Z,8.27
2022-09-21T01:13:30.896Z,8.01
2022-09-21T01:16:38.783Z,8.02
2022-09-21T01:20:04.631Z,7.93
2022-09-21T01:23:31.732Z,8.07
2022-09-21T01:26:48.667Z,8.01
2022-09-21T01:29:55.255Z,8.02
2022-09-21T01:33:04.498Z,7.76
2022-09-21T01:36:11.991Z,7.67
2022-09-21T01:39:16.801Z,7.78
2022-09-21T01:42:20.441Z,7.80
2022-09-21T01:45:30.332Z,7.85
2022-09-21T01:48:35.152Z,7.82
2022-09-21T01:51:43.639Z,7.86
2022-09-21T01:54:50.117Z,7.84
2022-09-21T01:57:57.971Z,7.74
2022-09-21T02:01:01.285Z,7.78
2022-09-21T02:04:08.796Z,7.81
2022-09-21T02:07:10.571Z,7.68
2022-09-21T02:10:18.616Z,7.66
2022-09-21T02:13:25.241Z,7.72
2022-09-21T02:16:36.138Z,7.54
2022-09-21T02:19:46.313Z,7.54
2022-09-21T02:23:03.342Z,7.63
2022-09-21T02:26:12.271Z,7.59
2022-09-21T02:29:20.572Z,7.44
2022-09-21T02:32:33.878Z,7.53
2022-09-21T02:35:40.559Z,7.52
2022-09-21T02:38:49.261Z,7.59
2022-09-21T02:42:01.863Z,7.46
2022-09-21T02:45:08.133Z,7.55
2022-09-21T02:48:15.697Z,7.59
2022-09-21T02:51:22.035Z,7.47
2022-09-21T02:54:29.584Z,7.42
2022-09-21T02:57:31.370Z,7.42
2022-09-21T03:00:34.353Z,7.32
2022-09-21T03:03:37.446Z,7.25
2022-09-21T03:06:39.183Z,7.35
2022-09-21T03:09:40.789Z,7.34
2022-09-21T03:13:44.677Z,7.24
2022-09-21T03:16:46.361Z,7.23
2022-09-21T03:19:49.370Z,7.16
2022-09-21T03:22:50.999Z,7.05
2022-09-21T03:25:52.559Z,7.10
2022-09-21T03:28:54.722Z,7.14
2022-09-21T03:31:56.483Z,7.13
2022-09-21T03:34:59.433Z,7.08
2022-09-21T03:38:01.788Z,6.91
2022-09-21T03:41:03.691Z,6.91
2022-09-21T03:44:05.434Z,6.93
2022-09-21T03:47:07.216Z,6.97
2022-09-21T03:50:10.905Z,6.89
2022-09-21T03:53:12.729Z,6.88
2022-09-21T03:56:14.337Z,7.01
2022-09-21T03:59:15.974Z,6.97
2022-09-21T04:02:17.785Z,6.85
2022-09-21T04:05:20.996Z,6.94
2022-09-21T04:08:22.567Z,6.79
2022-09-21T04:11:24.616Z,6.83
2022-09-21T04:14:26.298Z,6.88
2022-09-21T04:17:30.362Z,6.76
2022-09-21T04:20:33.436Z,6.87
2022-09-21T04:23:35.650Z,6.76
2022-09-21T04:26:37.332Z,6.80
2022-09-21T04:29:39.177Z,6.76
2022-09-21T04:32:40.890Z,6.68
2022-09-21T04:35:44.027Z,6.61
2022-09-21T04:38:46.217Z,6.57
2022-09-21T04:41:48.151Z,6.41
2022-09-21T04:44:49.777Z,6.54
2022-09-21T04:47:51.654Z,6.60
2022-09-21T04:50:54.798Z,6.61
2022-09-21T04:53:56.413Z,6.57
2022-09-21T04:56:58.183Z,6.54
2022-09-21T05:00:00.169Z,6.55
2022-09-21T05:03:01.877Z,6.54
2022-09-21T05:06:05.437Z,6.55
2022-09-21T05:09:25.838Z,6.49
2022-09-21T05:12:27.615Z,6.29
2022-09-21T05:15:29.259Z,6.40
2022-09-21T05:18:31.053Z,6.58
2022-09-21T05:21:34.083Z,6.60
2022-09-21T05:24:35.687Z,6.63
2022-09-21T05:27:37.450Z,6.59
2022-09-21T05:30:51.508Z,6.61
2022-09-21T05:34:10.697Z,6.65
2022-09-21T05:37:36.575Z,6.59
2022-09-21T05:40:38.477Z,6.59
2022-09-21T05:43:40.717Z,6.69
2022-09-21T05:46:52.685Z,6.51
2022-09-21T05:50:03.554Z,6.43
2022-09-21T05:53:19.179Z,6.47
2022-09-21T05:56:43.205Z,6.41
2022-09-21T06:00:00.478Z,6.45
2022-09-21T06:03:21.593Z,6.51
2022-09-21T06:06:23.195Z,6.63
2022-09-21T06:09:26.759Z,6.61
2022-09-21T06:12:28.423Z,6.63
2022-09-21T06:15:32.161Z,6.63
2022-09-21T06:18:37.316Z,6.73
2022-09-21T06:21:38.976Z,6.74
2022-09-21T06:24:42.004Z,6.79
2022-09-21T06:27:43.637Z,6.87
2022-09-21T06:30:51.088Z,6.72
2022-09-21T06:33:53.160Z,6.81
2022-09-21T06:36:54.790Z,6.86
2022-09-21T06:39:57.792Z,6.61
2022-09-21T06:43:01.139Z,6.75
2022-09-21T06:46:03.380Z,6.86
2022-09-21T06:49:05.445Z,6.83
2022-09-21T06:52:07.411Z,6.90
2022-09-21T06:55:10.763Z,7.04
2022-09-21T06:58:14.834Z,7.06
2022-09-21T07:01:16.600Z,7.11
2022-09-21T07:04:20.905Z,7.21
2022-09-21T07:07:26.749Z,7.32
2022-09-21T07:10:32.349Z,7.37
2022-09-21T07:13:35.459Z,7.48
2022-09-21T07:16:37.450Z,7.63
2022-09-21T07:19:39.492Z,7.56
2022-09-21T07:22:41.162Z,7.69
2022-09-21T07:25:45.417Z,7.91
2022-09-21T07:28:47.046Z,7.97
2022-09-21T07:31:48.720Z,8.20
2022-09-21T07:34:52.732Z,8.43
2022-09-21T07:37:56.466Z,8.46
2022-09-21T07:41:02.660Z,8.45
2022-09-21T07:44:04.557Z,8.55
2022-09-21T07:47:06.481Z,8.76
2022-09-21T07:50:08.863Z,8.96
2022-09-21T07:53:10.553Z,9.08
2022-09-21T07:56:16.130Z,9.15
2022-09-21T07:59:20.803Z,9.35
2022-09-21T08:02:22.476Z,9.47
2022-09-21T08:05:24.348Z,9.53
2022-09-21T08:08:25.977Z,9.70
2022-09-21T08:11:30.291Z,10.00
2022-09-21T08:14:32.062Z,10.20
2022-09-21T08:17:36.073Z,10.34
2022-09-21T08:20:38.018Z,10.49
2022-09-21T08:23:43.034Z,10.58
2022-09-21T08:26:46.468Z,10.75
2022-09-21T08:29:48.309Z,10.97
2022-09-21T08:32:51.830Z,11.06
2022-09-21T08:35:54.020Z,11.33
2022-09-21T08:38:56.864Z,11.45
2022-09-21T08:42:12.277Z,11.66
2022-09-21T08:45:20.654Z,11.82
2022-09-21T08:48:29.979Z,11.98
2022-09-21T08:51:37.494Z,12.22
2022-09-21T08:54:43.805Z,12.34
2022-09-21T08:57:46.921Z,12.40
2022-09-21T09:00:52.443Z,12.38
2022-09-21T09:04:11.532Z,12.63
2022-09-21T09:07:31.812Z,12.90
2022-09-21T09:10:38.617Z,12.93
2022-09-21T09:14:17.892Z,13.10
2022-09-21T09:17:33.230Z,13.17
2022-09-21T09:20:38.089Z,13.19
2022-09-21T09:23:47.578Z,13.24
2022-09-21T09:26:53.293Z,13.30
2022-09-21T09:30:03.595Z,13.57
2022-09-21T09:33:08.144Z,13.65
2022-09-21T09:39:30.703Z,14.12
2022-09-21T09:42:46.319Z,14.13
2022-09-21T09:45:59.410Z,14.18
2022-09-21T09:49:14.557Z,14.30
2022-09-21T09:52:16.745Z,14.40
2022-09-21T09:55:22.161Z,14.56
2022-09-21T09:58:29.602Z,14.51
2022-09-21T10:01:42.677Z,14.62
2022-09-21T10:04:55.298Z,14.71
2022-09-21T10:07:57.265Z,14.89
2022-09-21T10:10:58.987Z,14.78
2022-09-21T10:14:07.756Z,15.00
2022-09-21T10:17:17.772Z,15.46
2022-09-21T10:20:20.270Z,15.62
2022-09-21T10:23:22.818Z,15.73
2022-09-21T10:26:30.886Z,15.80
2022-09-21T10:29:40.187Z,15.90
2022-09-21T10:32:55.505Z,16.03
2022-09-21T10:35:57.629Z,15.86
2022-09-21T10:39:27.813Z,16.24
2022-09-21T10:42:33.965Z,16.25
2022-09-21T10:45:37.217Z,15.76
2022-09-21T10:48:44.692Z,16.07
2022-09-21T10:51:49.319Z,16.15
2022-09-21T10:54:54.402Z,16.32
2022-09-21T10:57:57.039Z,16.73
2022-09-21T11:01:11.542Z,16.11
2022-09-21T11:04:20.205Z,16.25
2022-09-21T11:07:27.831Z,16.71
2022-09-21T11:10:38.348Z,16.63
2022-09-21T11:13:48.962Z,16.55
2022-09-21T11:16:55.551Z,16.72
2022-09-21T11:20:18.434Z,17.15
2022-09-21T11:23:41.420Z,17.40
2022-09-21T11:26:52.261Z,17.47
2022-09-21T11:30:01.744Z,17.36
2022-09-21T11:33:15.856Z,17.37
2022-09-21T11:36:29.757Z,17.74
2022-09-21T11:39:43.016Z,18.00
2022-09-21T11:42:54.016Z,18.33
2022-09-21T11:46:06.780Z,18.33
2022-09-21T11:49:27.688Z,18.52
2022-09-21T11:52:43.000Z,18.96
2022-09-21T11:56:12.444Z,18.73
2022-09-21T11:59:29.851Z,18.10
2022-09-21T12:02:59.389Z,18.03
2022-09-21T12:06:16.185Z,18.38
2022-09-21T12:09:35.331Z,19.03
2022-09-21T12:12:43.482Z,18.98
2022-09-21T12:15:51.692Z,18.32
2022-09-21T12:18:59.297Z,18.65
2022-09-21T12:22:06.630Z,18.69
2022-09-21T12:25:17.178Z,18.77
2022-09-21T12:28:22.462Z,18.93
2022-09-21T12:31:31.507Z,18.69
2022-09-21T12:34:40.108Z,19.19
2022-09-21T12:37:47.533Z,19.04
2022-09-21T12:40:55.549Z,19.66
2022-09-21T12:44:02.552Z,19.85
2022-09-21T12:47:10.655Z,19.33
2022-09-21T12:50:20.986Z,18.82
2022-09-21T12:53:26.119Z,19.45
2022-09-21T12:56:40.651Z,18.89
2022-09-21T12:59:52.876Z,19.50
2022-09-21T13:02:59.388Z,19.36
2022-09-21T13:09:42.167Z,19.48
2022-09-21T13:12:47.795Z,19.52
2022-09-21T13:15:51.076Z,19.49
2022-09-21T13:18:56.631Z,19.72
2022-09-21T13:22:15.983Z,19.71
2022-09-21T13:25:23.847Z,19.74
2022-09-21T13:28:41.600Z,19.76
2022-09-21T13:31:57.496Z,19.96
2022-09-21T13:35:51.676Z,20.08
2022-09-21T13:39:17.192Z,19.92
2022-09-21T13:42:45.050Z,20.31
2022-09-21T13:45:56.951Z,20.03
2022-09-21T13:49:00.201Z,20.71
2022-09-21T13:52:05.010Z,20.13
2022-09-21T13:55:22.406Z,20.10
2022-09-21T13:58:26.999Z,20.42
2022-09-21T14:01:51.257Z,19.83
2022-09-21T14:04:53.344Z,19.47
2022-09-21T14:07:57.411Z,20.37
2022-09-21T14:11:03.241Z,20.54
2022-09-21T14:14:18.311Z,19.32
2022-09-21T14:17:38.276Z,20.24
2022-09-21T14:20:40.112Z,20.55
2022-09-21T14:23:41.767Z,20.39
2022-09-21T14:26:52.787Z,20.54
2022-09-21T14:30:07.658Z,20.69
2022-09-21T14:33:22.790Z,19.68
2022-09-21T14:36:31.311Z,20.41
2022-09-21T14:39:37.411Z,20.51
2022-09-21T14:42:39.699Z,20.82
2022-09-21T14:45:55.894Z,20.38
2022-09-21T14:49:14.108Z,20.27
2022-09-21T14:52:32.304Z,20.48
2022-09-21T14:55:49.940Z,19.52
2022-09-21T14:59:07.573Z,19.63
2022-09-21T15:02:19.928Z,19.81
2022-09-21T15:05:31.206Z,20.28
2022-09-21T15:09:10.059Z,19.90
2022-09-21T15:12:19.680Z,19.51
2022-09-21T15:15:34.320Z,19.05
2022-09-21T15:18:41.643Z,19.25
2022-09-21T15:21:46.221Z,19.02
2022-09-21T15:24:53.289Z,18.86
2022-09-21T15:27:55.444Z,18.50
2022-09-21T15:30:58.005Z,18.43
2022-09-21T15:34:00.296Z,18.22
2022-09-21T15:37:17.110Z,18.05
2022-09-21T15:40:21.616Z,18.00
2022-09-21T15:43:23.380Z,18.08
2022-09-21T15:46:25.346Z,17.95
2022-09-21T15:49:29.582Z,17.86
2022-09-21T15:52:38.461Z,17.93
2022-09-21T15:55:41.083Z,17.72
2022-09-21T15:58:45.678Z,17.31
2022-09-21T16:01:50.611Z,17.31
2022-09-21T16:04:52.953Z,17.50
2022-09-21T16:08:09.976Z,17.45
2022-09-21T16:11:15.829Z,17.23
2022-09-21T16:14:37.172Z,17.13
2022-09-21T16:17:38.956Z,17.06
2022-09-21T16:20:43.569Z,17.15
2022-09-21T16:23:48.002Z,17.01
2022-09-21T16:26:57.428Z,17.10
2022-09-21T16:30:01.050Z,17.04
2022-09-21T16:33:04.635Z,16.78
2022-09-21T16:36:39.277Z,16.73
2022-09-21T16:39:42.473Z,16.64
2022-09-21T16:42:44.660Z,16.46
2022-09-21T16:45:47.210Z,16.51
2022-09-21T16:48:49.963Z,16.24
2022-09-21T16:51:52.574Z,16.14
2022-09-21T16:54:59.215Z,16.04
2022-09-21T16:58:00.949Z,16.14
2022-09-21T17:01:02.758Z,16.13
2022-09-21T17:04:05.314Z,15.77
2022-09-21T17:07:07.353Z,15.97
2022-09-21T17:10:15.934Z,15.73
2022-09-21T17:13:20.464Z,15.64
2022-09-21T17:16:22.528Z,15.37
2022-09-21T17:19:27.150Z,15.02
2022-09-21T17:22:28.994Z,15.14
2022-09-21T17:25:35.486Z,15.08
2022-09-21T17:28:37.318Z,14.79
2022-09-21T17:31:38.942Z,14.61
2022-09-21T17:34:42.105Z,14.42
2022-09-21T17:37:43.753Z,14.10
2022-09-21T17:40:47.236Z,14.10
2022-09-21T17:43:57.827Z,13.63
2022-09-21T17:47:05.602Z,13.53
2022-09-21T17:50:19.531Z,13.31
2022-09-21T17:53:34.422Z,13.13
2022-09-21T17:56:46.959Z,12.91
2022-09-21T17:59:55.035Z,12.98
2022-09-21T18:02:58.048Z,13.03
2022-09-21T18:06:00.717Z,13.08
2022-09-21T18:09:03.711Z,13.12
2022-09-21T18:12:45.172Z,12.99
2022-09-21T18:16:03.665Z,13.25
2022-09-21T18:19:30.949Z,13.33
2022-09-21T18:22:48.875Z,13.07
2022-09-21T18:25:55.028Z,13.17
2022-09-21T18:28:58.348Z,13.15
2022-09-21T18:32:39.607Z,12.99
2022-09-21T18:35:59.392Z,12.97
2022-09-21T18:39:17.026Z,12.97
2022-09-21T18:42:29.296Z,12.98
2022-09-21T18:45:36.152Z,12.96
2022-09-21T18:48:54.817Z,12.79
2022-09-21T18:52:05.029Z,12.62
2022-09-21T18:55:23.096Z,12.57
2022-09-21T18:58:25.419Z,12.35
2022-09-21T19:01:29.817Z,12.36
2022-09-21T19:04:33.785Z,12.37
2022-09-21T19:07:40.861Z,12.13
2022-09-21T19:10:48.141Z,11.94
2022-09-21T19:13:59.108Z,11.87
2022-09-21T19:17:12.206Z,11.77
2022-09-21T19:20:29.950Z,11.78
2022-09-21T19:23:42.471Z,11.71
2022-09-21T19:26:50.947Z,11.69
2022-09-21T19:30:01.310Z,11.42
2022-09-21T19:33:32.406Z,11.23
2022-09-21T19:36:41.661Z,11.15
2022-09-21T19:39:44.137Z,11.11
2022-09-21T19:42:59.360Z,11.06
2022-09-21T19:46:11.921Z,10.88
2022-09-21T19:49:19.006Z,10.80
2022-09-21T19:52:29.750Z,10.90
2022-09-21T19:55:51.195Z,10.85
2022-09-21T19:59:12.628Z,11.10
2022-09-21T20:02:19.622Z,11.23
2022-09-21T20:05:28.194Z,11.46
2022-09-21T20:08:37.724Z,11.87
2022-09-21T20:11:47.365Z,11.88
2022-09-21T20:14:54.617Z,12.10
2022-09-21T20:18:02.991Z,12.33
2022-09-21T20:21:14.756Z,12.75
2022-09-21T20:24:24.682Z,12.69
2022-09-21T20:27:35.041Z,12.84
2022-09-21T20:30:39.758Z,12.59
2022-09-21T20:33:41.526Z,12.55
2022-09-21T20:36:43.173Z,12.69
2022-09-21T20:39:46.520Z,12.84
2022-09-21T20:42:48.177Z,12.72
2022-09-21T20:45:50.321Z,12.97
2022-09-21T20:49:04.713Z,13.20
2022-09-21T20:52:06.478Z,13.33
2022-09-21T20:55:12.328Z,13.27
2022-09-21T20:58:13.961Z,13.27
2022-09-21T21:01:15.688Z,13.32
2022-09-21T21:04:17.441Z,13.34
2022-09-21T21:07:19.128Z,13.50
2022-09-21T21:10:22.193Z,13.44
2022-09-21T21:13:23.872Z,13.33
2022-09-21T21:16:26.435Z,13.23
2022-09-21T21:19:28.098Z,13.26
2022-09-21T21:22:29.762Z,13.33
2022-09-21T21:25:32.751Z,13.34
2022-09-21T21:28:34.376Z,13.26
2022-09-21T21:31:36.188Z,13.31
2022-09-21T21:34:38.296Z,13.29
2022-09-21T21:37:40.330Z,13.40
2022-09-21T21:40:43.451Z,13.23
2022-09-21T21:43:45.263Z,13.28
2022-09-21T21:46:46.973Z,13.24
2022-09-21T21:49:48.630Z,13.23
2022-09-21T21:52:50.256Z,13.29
2022-09-21T21:56:01.589Z,13.20
2022-09-21T21:59:04.119Z,13.14
2022-09-21T22:02:05.970Z,13.09
2022-09-21T22:05:08.426Z,13.06
2022-09-21T22:08:10.068Z,13.16
2022-09-21T22:11:13.154Z,13.11
2022-09-21T22:14:14.979Z,13.00
2022-09-21T22:17:16.601Z,13.02
2022-09-21T22:20:18.276Z,13.06
2022-09-21T22:23:20.020Z,12.95
2022-09-21T22:26:24.058Z,12.93
2022-09-21T22:29:25.760Z,12.92
2022-09-21T22:32:27.399Z,12.95
2022-09-21T22:35:29.066Z,12.92
2022-09-21T22:38:31.797Z,12.92
2022-09-21T22:41:36.870Z,12.99
2022-09-21T22:44:38.484Z,12.94
2022-09-21T22:47:41.597Z,12.98
2022-09-21T22:50:43.411Z,12.90
2022-09-21T22:53:46.038Z,12.90
2022-09-21T22:56:49.112Z,12.86
2022-09-21T22:59:50.812Z,12.97
2022-09-21T23:02:56.101Z,12.89
2022-09-21T23:05:57.965Z,13.01
2022-09-21T23:09:02.003Z,12.93
2022-09-21T23:12:05.498Z,13.00
2022-09-21T23:15:08.476Z,12.96
2022-09-21T23:18:10.161Z,12.88
2022-09-21T23:21:14.155Z,12.87
2022-09-21T23:24:16.063Z,12.97
2022-09-21T23:27:19.032Z,12.89
2022-09-21T23:30:20.860Z,12.94
2022-09-21T23:33:22.536Z,12.90
2022-09-21T23:36:26.617Z,12.79
2022-09-21T23:39:28.256Z,12.87
2022-09-21T23:42:31.196Z,12.86
2022-09-21T23:45:32.806Z,12.80
2022-09-21T23:48:34.949Z,12.83
2022-09-21T23:51:37.119Z,12.95
2022-09-21T23:54:39.171Z,12.91
2022-09-21T23:57:42.122Z,12.87
